sensor_id;sensor_type;location;lat;lon;timestamp;temperature;humidity
59893;DHT22;45758;51.052;3.740;2022-12-18T00:02:19;-3.00;99.90
59893;DHT22;45758;51.052;3.740;2022-12-18T00:04:47;-3.10;99.90
59893;DHT22;45758;51.052;3.740;2022-12-18T00:07:13;-3.20;99.90
59893;DHT22;45758;51.052;3.740;2022-12-18T00:09:39;-3.30;99.90
59893;DHT22;45758;51.052;3.740;2022-12-18T00:12:10;-3.40;99.90
59893;DHT22;45758;51.052;3.740;2022-12-18T00:14:36;-3.30;99.90
59893;DHT22;45758;51.052;3.740;2022-12-18T00:17:03;-3.30;99.90
59893;DHT22;45758;51.052;3.740;2022-12-18T00:19:29;-3.20;99.90
59893;DHT22;45758;51.052;3.740;2022-12-18T00:21:55;-3.20;99.90
59893;DHT22;45758;51.052;3.740;2022-12-18T00:24:21;-3.20;99.90
59893;DHT22;45758;51.052;3.740;2022-12-18T00:26:47;-3.30;99.90
59893;DHT22;45758;51.052;3.740;2022-12-18T00:29:13;-3.20;99.90
59893;DHT22;45758;51.052;3.740;2022-12-18T00:31:42;-3.20;99.90
59893;DHT22;45758;51.052;3.740;2022-12-18T00:34:14;-3.30;99.90
59893;DHT22;45758;51.052;3.740;2022-12-18T00:36:41;-3.40;99.90
59893;DHT22;45758;51.052;3.740;2022-12-18T00:39:10;-3.40;99.90
59893;DHT22;45758;51.052;3.740;2022-12-18T00:41:38;-3.40;99.90
59893;DHT22;45758;51.052;3.740;2022-12-18T00:44:23;-3.50;99.90
59893;DHT22;45758;51.052;3.740;2022-12-18T00:46:48;-3.60;99.90
59893;DHT22;45758;51.052;3.740;2022-12-18T00:49:16;-3.70;99.90
59893;DHT22;45758;51.052;3.740;2022-12-18T00:51:45;-3.70;99.90
59893;DHT22;45758;51.052;3.740;2022-12-18T00:54:11;-3.80;99.90
59893;DHT22;45758;51.052;3.740;2022-12-18T00:56:38;-3.80;99.90
59893;DHT22;45758;51.052;3.740;2022-12-18T00:59:04;-4.00;99.90
59893;DHT22;45758;51.052;3.740;2022-12-18T01:01:36;-3.90;99.90
59893;DHT22;45758;51.052;3.740;2022-12-18T01:04:03;-4.00;99.90
59893;DHT22;45758;51.052;3.740;2022-12-18T01:06:30;-4.00;99.90
59893;DHT22;45758;51.052;3.740;2022-12-18T01:08:57;-4.00;99.90
59893;DHT22;45758;51.052;3.740;2022-12-18T01:11:23;-3.90;99.90
59893;DHT22;45758;51.052;3.740;2022-12-18T01:13:52;-4.00;99.90
59893;DHT22;45758;51.052;3.740;2022-12-18T01:16:22;-3.90;99.90
59893;DHT22;45758;51.052;3.740;2022-12-18T01:18:52;-4.00;99.90
59893;DHT22;45758;51.052;3.740;2022-12-18T01:21:21;-4.20;99.90
59893;DHT22;45758;51.052;3.740;2022-12-18T01:23:51;-4.10;99.90
59893;DHT22;45758;51.052;3.740;2022-12-18T01:26:18;-4.00;99.90
59893;DHT22;45758;51.052;3.740;2022-12-18T01:28:44;-4.00;99.90
59893;DHT22;45758;51.052;3.740;2022-12-18T01:31:14;-4.00;99.90
59893;DHT22;45758;51.052;3.740;2022-12-18T01:33:43;-4.00;99.90
59893;DHT22;45758;51.052;3.740;2022-12-18T01:36:15;-3.90;99.90
59893;DHT22;45758;51.052;3.740;2022-12-18T01:38:41;-3.90;99.90
59893;DHT22;45758;51.052;3.740;2022-12-18T01:41:09;-3.90;99.90
59893;DHT22;45758;51.052;3.740;2022-12-18T01:43:53;-4.10;99.90
59893;DHT22;45758;51.052;3.740;2022-12-18T01:46:21;-4.10;99.90
59893;DHT22;45758;51.052;3.740;2022-12-18T01:48:58;-4.10;99.90
59893;DHT22;45758;51.052;3.740;2022-12-18T01:51:27;-4.20;99.90
59893;DHT22;45758;51.052;3.740;2022-12-18T01:53:54;-4.30;99.90
59893;DHT22;45758;51.052;3.740;2022-12-18T01:56:20;-4.30;99.90
59893;DHT22;45758;51.052;3.740;2022-12-18T01:59:02;-4.50;99.90
59893;DHT22;45758;51.052;3.740;2022-12-18T02:01:29;-4.40;99.90
59893;DHT22;45758;51.052;3.740;2022-12-18T02:04:21;-4.30;99.90
59893;DHT22;45758;51.052;3.740;2022-12-18T02:06:53;-4.10;99.90
59893;DHT22;45758;51.052;3.740;2022-12-18T02:09:31;-4.10;99.90
59893;DHT22;45758;51.052;3.740;2022-12-18T02:20:45;-4.40;99.90
59893;DHT22;45758;51.052;3.740;2022-12-18T02:29:00;-4.40;99.90
59893;DHT22;45758;51.052;3.740;2022-12-18T02:31:30;-4.50;99.90
59893;DHT22;45758;51.052;3.740;2022-12-18T02:34:01;-4.40;99.90
59893;DHT22;45758;51.052;3.740;2022-12-18T02:36:28;-4.40;99.90
59893;DHT22;45758;51.052;3.740;2022-12-18T02:38:57;-4.50;99.90
59893;DHT22;45758;51.052;3.740;2022-12-18T02:41:26;-4.50;99.90
59893;DHT22;45758;51.052;3.740;2022-12-18T02:43:59;-4.30;99.90
59893;DHT22;45758;51.052;3.740;2022-12-18T02:57:46;-4.40;99.90
59893;DHT22;45758;51.052;3.740;2022-12-18T03:00:24;-4.20;99.90
59893;DHT22;45758;51.052;3.740;2022-12-18T03:02:59;-4.20;99.90
59893;DHT22;45758;51.052;3.740;2022-12-18T03:05:52;-4.40;99.90
59893;DHT22;45758;51.052;3.740;2022-12-18T03:09:04;-4.50;99.90
59893;DHT22;45758;51.052;3.740;2022-12-18T03:11:11;-4.50;99.90
59893;DHT22;45758;51.052;3.740;2022-12-18T03:13:52;-4.60;99.90
59893;DHT22;45758;51.052;3.740;2022-12-18T03:16:28;-4.60;99.90
59893;DHT22;45758;51.052;3.740;2022-12-18T03:19:00;-4.70;99.90
59893;DHT22;45758;51.052;3.740;2022-12-18T03:21:32;-4.60;99.90
59893;DHT22;45758;51.052;3.740;2022-12-18T03:23:59;-4.70;99.90
59893;DHT22;45758;51.052;3.740;2022-12-18T03:26:28;-4.70;99.90
59893;DHT22;45758;51.052;3.740;2022-12-18T03:29:05;-4.70;99.90
59893;DHT22;45758;51.052;3.740;2022-12-18T03:31:32;-4.60;99.90
59893;DHT22;45758;51.052;3.740;2022-12-18T03:34:04;-4.60;99.90
59893;DHT22;45758;51.052;3.740;2022-12-18T03:36:31;-4.50;99.90
59893;DHT22;45758;51.052;3.740;2022-12-18T03:39:00;-4.60;99.90
59893;DHT22;45758;51.052;3.740;2022-12-18T03:41:40;-4.60;99.90
59893;DHT22;45758;51.052;3.740;2022-12-18T03:44:28;-4.60;99.90
59893;DHT22;45758;51.052;3.740;2022-12-18T03:52:26;-4.70;99.90
59893;DHT22;45758;51.052;3.740;2022-12-18T03:54:57;-4.70;99.90
59893;DHT22;45758;51.052;3.740;2022-12-18T03:57:27;-4.70;99.90
59893;DHT22;45758;51.052;3.740;2022-12-18T03:59:59;-4.70;99.90
59893;DHT22;45758;51.052;3.740;2022-12-18T04:02:28;-4.70;99.90
59893;DHT22;45758;51.052;3.740;2022-12-18T04:05:03;-4.70;99.90
59893;DHT22;45758;51.052;3.740;2022-12-18T04:07:30;-4.70;99.90
59893;DHT22;45758;51.052;3.740;2022-12-18T04:09:59;-4.70;99.90
59893;DHT22;45758;51.052;3.740;2022-12-18T04:12:26;-4.60;99.90
59893;DHT22;45758;51.052;3.740;2022-12-18T04:14:55;-4.40;99.90
59893;DHT22;45758;51.052;3.740;2022-12-18T04:17:25;-4.50;99.90
59893;DHT22;45758;51.052;3.740;2022-12-18T04:19:51;-4.40;99.90
59893;DHT22;45758;51.052;3.740;2022-12-18T04:22:17;-4.40;99.90
59893;DHT22;45758;51.052;3.740;2022-12-18T04:24:44;-4.50;99.90
59893;DHT22;45758;51.052;3.740;2022-12-18T04:27:10;-4.50;99.90
59893;DHT22;45758;51.052;3.740;2022-12-18T04:29:39;-4.50;99.90
59893;DHT22;45758;51.052;3.740;2022-12-18T04:32:05;-4.60;99.90
59893;DHT22;45758;51.052;3.740;2022-12-18T04:34:33;-4.60;99.90
59893;DHT22;45758;51.052;3.740;2022-12-18T04:37:07;-4.60;99.90
59893;DHT22;45758;51.052;3.740;2022-12-18T04:39:33;-4.80;99.90
59893;DHT22;45758;51.052;3.740;2022-12-18T04:41:59;-4.80;99.90
59893;DHT22;45758;51.052;3.740;2022-12-18T04:44:26;-4.80;99.90
59893;DHT22;45758;51.052;3.740;2022-12-18T04:46:52;-4.90;99.90
59893;DHT22;45758;51.052;3.740;2022-12-18T04:49:23;-4.80;99.90
59893;DHT22;45758;51.052;3.740;2022-12-18T04:51:51;-4.80;99.90
59893;DHT22;45758;51.052;3.740;2022-12-18T04:54:18;-4.70;99.90
59893;DHT22;45758;51.052;3.740;2022-12-18T04:56:44;-4.70;99.90
59893;DHT22;45758;51.052;3.740;2022-12-18T04:59:11;-4.80;99.90
59893;DHT22;45758;51.052;3.740;2022-12-18T05:01:37;-4.70;99.90
59893;DHT22;45758;51.052;3.740;2022-12-18T05:04:04;-4.90;99.90
59893;DHT22;45758;51.052;3.740;2022-12-18T05:06:31;-4.80;99.90
59893;DHT22;45758;51.052;3.740;2022-12-18T05:08:57;-4.90;99.90
59893;DHT22;45758;51.052;3.740;2022-12-18T05:11:23;-4.90;99.90
59893;DHT22;45758;51.052;3.740;2022-12-18T05:13:49;-4.90;99.90
59893;DHT22;45758;51.052;3.740;2022-12-18T05:16:15;-4.80;99.90
59893;DHT22;45758;51.052;3.740;2022-12-18T05:18:44;-4.70;99.90
59893;DHT22;45758;51.052;3.740;2022-12-18T05:21:10;-4.80;99.90
59893;DHT22;45758;51.052;3.740;2022-12-18T05:23:43;-4.70;99.90
59893;DHT22;45758;51.052;3.740;2022-12-18T05:26:15;-4.70;99.90
59893;DHT22;45758;51.052;3.740;2022-12-18T05:28:44;-4.80;99.90
59893;DHT22;45758;51.052;3.740;2022-12-18T05:31:11;-4.90;99.90
59893;DHT22;45758;51.052;3.740;2022-12-18T05:33:37;-4.80;99.90
59893;DHT22;45758;51.052;3.740;2022-12-18T05:36:07;-4.80;99.90
59893;DHT22;45758;51.052;3.740;2022-12-18T05:38:37;-4.80;99.90
59893;DHT22;45758;51.052;3.740;2022-12-18T05:41:05;-4.80;99.90
59893;DHT22;45758;51.052;3.740;2022-12-18T05:43:33;-4.80;99.90
59893;DHT22;45758;51.052;3.740;2022-12-18T05:46:06;-4.80;99.90
59893;DHT22;45758;51.052;3.740;2022-12-18T05:48:33;-4.80;99.90
59893;DHT22;45758;51.052;3.740;2022-12-18T05:51:09;-4.70;99.90
59893;DHT22;45758;51.052;3.740;2022-12-18T05:53:36;-4.90;99.90
59893;DHT22;45758;51.052;3.740;2022-12-18T05:56:08;-4.80;99.90
59893;DHT22;45758;51.052;3.740;2022-12-18T05:58:35;-4.90;99.90
59893;DHT22;45758;51.052;3.740;2022-12-18T06:01:15;-4.70;99.90
59893;DHT22;45758;51.052;3.740;2022-12-18T06:03:41;-4.70;99.90
59893;DHT22;45758;51.052;3.740;2022-12-18T06:06:19;-4.60;99.90
59893;DHT22;45758;51.052;3.740;2022-12-18T06:08:49;-4.60;99.90
59893;DHT22;45758;51.052;3.740;2022-12-18T06:11:22;-4.80;99.90
59893;DHT22;45758;51.052;3.740;2022-12-18T06:13:50;-4.60;99.90
59893;DHT22;45758;51.052;3.740;2022-12-18T06:16:17;-4.60;99.90
59893;DHT22;45758;51.052;3.740;2022-12-18T06:18:44;-4.70;99.90
59893;DHT22;45758;51.052;3.740;2022-12-18T06:21:10;-4.70;99.90
59893;DHT22;45758;51.052;3.740;2022-12-18T06:23:36;-4.80;99.90
59893;DHT22;45758;51.052;3.740;2022-12-18T06:26:07;-4.70;99.90
59893;DHT22;45758;51.052;3.740;2022-12-18T06:28:33;-4.70;99.90
59893;DHT22;45758;51.052;3.740;2022-12-18T06:31:03;-4.70;99.90
59893;DHT22;45758;51.052;3.740;2022-12-18T06:33:30;-4.70;99.90
59893;DHT22;45758;51.052;3.740;2022-12-18T06:36:07;-4.60;99.90
59893;DHT22;45758;51.052;3.740;2022-12-18T06:38:41;-4.60;99.90
59893;DHT22;45758;51.052;3.740;2022-12-18T06:41:14;-4.50;99.90
59893;DHT22;45758;51.052;3.740;2022-12-18T06:43:41;-4.70;99.90
59893;DHT22;45758;51.052;3.740;2022-12-18T06:46:08;-4.60;99.90
59893;DHT22;45758;51.052;3.740;2022-12-18T06:48:34;-4.70;99.90
59893;DHT22;45758;51.052;3.740;2022-12-18T06:51:02;-4.70;99.90
59893;DHT22;45758;51.052;3.740;2022-12-18T06:53:31;-4.70;99.90
59893;DHT22;45758;51.052;3.740;2022-12-18T06:56:05;-4.70;99.90
59893;DHT22;45758;51.052;3.740;2022-12-18T06:58:31;-4.70;99.90
59893;DHT22;45758;51.052;3.740;2022-12-18T07:01:02;-4.70;99.90
59893;DHT22;45758;51.052;3.740;2022-12-18T07:03:39;-4.60;99.90
59893;DHT22;45758;51.052;3.740;2022-12-18T07:06:05;-4.70;99.90
59893;DHT22;45758;51.052;3.740;2022-12-18T07:08:31;-4.70;99.90
59893;DHT22;45758;51.052;3.740;2022-12-18T07:11:03;-4.60;99.90
59893;DHT22;45758;51.052;3.740;2022-12-18T07:13:34;-4.70;99.90
59893;DHT22;45758;51.052;3.740;2022-12-18T07:16:09;-4.60;99.90
59893;DHT22;45758;51.052;3.740;2022-12-18T07:18:41;-4.60;99.90
59893;DHT22;45758;51.052;3.740;2022-12-18T07:21:10;-4.60;99.90
59893;DHT22;45758;51.052;3.740;2022-12-18T07:23:38;-4.50;99.90
59893;DHT22;45758;51.052;3.740;2022-12-18T07:26:10;-4.50;99.90
59893;DHT22;45758;51.052;3.740;2022-12-18T07:28:39;-4.40;99.90
59893;DHT22;45758;51.052;3.740;2022-12-18T07:31:08;-4.40;99.90
59893;DHT22;45758;51.052;3.740;2022-12-18T07:33:35;-4.60;99.90
59893;DHT22;45758;51.052;3.740;2022-12-18T07:36:05;-4.70;99.90
59893;DHT22;45758;51.052;3.740;2022-12-18T07:38:32;-4.70;99.90
59893;DHT22;45758;51.052;3.740;2022-12-18T07:41:06;-4.70;99.90
59893;DHT22;45758;51.052;3.740;2022-12-18T07:43:38;-4.70;99.90
59893;DHT22;45758;51.052;3.740;2022-12-18T07:46:05;-4.80;99.90
59893;DHT22;45758;51.052;3.740;2022-12-18T07:48:33;-4.70;99.90
59893;DHT22;45758;51.052;3.740;2022-12-18T07:51:00;-4.80;99.90
59893;DHT22;45758;51.052;3.740;2022-12-18T07:53:27;-4.80;99.90
59893;DHT22;45758;51.052;3.740;2022-12-18T07:55:59;-4.80;99.90
59893;DHT22;45758;51.052;3.740;2022-12-18T07:58:26;-4.70;99.90
59893;DHT22;45758;51.052;3.740;2022-12-18T08:00:52;-4.60;99.90
59893;DHT22;45758;51.052;3.740;2022-12-18T08:03:20;-4.60;99.90
59893;DHT22;45758;51.052;3.740;2022-12-18T08:05:46;-4.40;99.90
59893;DHT22;45758;51.052;3.740;2022-12-18T08:08:12;-4.60;99.90
59893;DHT22;45758;51.052;3.740;2022-12-18T08:10:39;-4.50;99.90
59893;DHT22;45758;51.052;3.740;2022-12-18T08:13:05;-4.40;99.90
59893;DHT22;45758;51.052;3.740;2022-12-18T08:15:31;-4.40;99.90
59893;DHT22;45758;51.052;3.740;2022-12-18T08:17:57;-4.40;99.90
59893;DHT22;45758;51.052;3.740;2022-12-18T08:20:23;-4.50;99.90
59893;DHT22;45758;51.052;3.740;2022-12-18T08:22:49;-4.50;99.90
59893;DHT22;45758;51.052;3.740;2022-12-18T08:25:15;-4.40;99.90
59893;DHT22;45758;51.052;3.740;2022-12-18T08:27:41;-4.40;99.90
59893;DHT22;45758;51.052;3.740;2022-12-18T08:30:07;-4.40;99.90
59893;DHT22;45758;51.052;3.740;2022-12-18T08:32:33;-4.30;99.90
59893;DHT22;45758;51.052;3.740;2022-12-18T08:35:02;-4.20;99.90
59893;DHT22;45758;51.052;3.740;2022-12-18T08:37:28;-4.20;99.90
59893;DHT22;45758;51.052;3.740;2022-12-18T08:39:53;-4.00;99.90
59893;DHT22;45758;51.052;3.740;2022-12-18T08:42:19;-3.90;99.90
59893;DHT22;45758;51.052;3.740;2022-12-18T08:45:05;-3.80;99.90
59893;DHT22;45758;51.052;3.740;2022-12-18T08:47:31;-3.80;99.90
59893;DHT22;45758;51.052;3.740;2022-12-18T08:49:57;-3.70;99.90
59893;DHT22;45758;51.052;3.740;2022-12-18T08:52:22;-3.50;99.90
59893;DHT22;45758;51.052;3.740;2022-12-18T08:54:48;-3.40;99.90
59893;DHT22;45758;51.052;3.740;2022-12-18T08:57:14;-3.40;99.90
59893;DHT22;45758;51.052;3.740;2022-12-18T08:59:40;-3.40;99.90
59893;DHT22;45758;51.052;3.740;2022-12-18T09:02:05;-3.30;99.90
59893;DHT22;45758;51.052;3.740;2022-12-18T09:04:31;-3.30;99.90
59893;DHT22;45758;51.052;3.740;2022-12-18T09:07:00;-3.20;99.90
59893;DHT22;45758;51.052;3.740;2022-12-18T09:09:26;-3.20;99.90
59893;DHT22;45758;51.052;3.740;2022-12-18T09:11:52;-3.20;99.90
59893;DHT22;45758;51.052;3.740;2022-12-18T09:14:18;-3.10;99.90
59893;DHT22;45758;51.052;3.740;2022-12-18T09:16:44;-2.90;99.90
59893;DHT22;45758;51.052;3.740;2022-12-18T09:19:10;-2.90;99.90
59893;DHT22;45758;51.052;3.740;2022-12-18T09:21:35;-2.90;99.90
59893;DHT22;45758;51.052;3.740;2022-12-18T09:24:04;-2.90;99.90
59893;DHT22;45758;51.052;3.740;2022-12-18T09:26:32;-2.90;99.90
59893;DHT22;45758;51.052;3.740;2022-12-18T09:28:58;-2.80;99.90
59893;DHT22;45758;51.052;3.740;2022-12-18T09:31:24;-2.80;99.90
59893;DHT22;45758;51.052;3.740;2022-12-18T09:33:51;-2.80;99.90
59893;DHT22;45758;51.052;3.740;2022-12-18T09:36:17;-2.70;99.90
59893;DHT22;45758;51.052;3.740;2022-12-18T09:38:43;-2.50;99.90
59893;DHT22;45758;51.052;3.740;2022-12-18T09:41:38;-2.40;99.90
59893;DHT22;45758;51.052;3.740;2022-12-18T09:44:24;-2.40;99.90
59893;DHT22;45758;51.052;3.740;2022-12-18T09:47:05;-2.30;99.90
59893;DHT22;45758;51.052;3.740;2022-12-18T09:49:36;-2.40;99.90
59893;DHT22;45758;51.052;3.740;2022-12-18T09:52:35;-2.30;99.90
59893;DHT22;45758;51.052;3.740;2022-12-18T09:57:59;-2.10;99.90
59893;DHT22;45758;51.052;3.740;2022-12-18T10:00:26;-2.20;99.90
59893;DHT22;45758;51.052;3.740;2022-12-18T10:03:03;-2.10;99.90
59893;DHT22;45758;51.052;3.740;2022-12-18T10:14:25;-2.00;99.90
59893;DHT22;45758;51.052;3.740;2022-12-18T10:22:58;-1.70;99.90
59893;DHT22;45758;51.052;3.740;2022-12-18T10:25:50;-1.70;99.90
59893;DHT22;45758;51.052;3.740;2022-12-18T10:28:18;-1.60;99.90
59893;DHT22;45758;51.052;3.740;2022-12-18T10:30:45;-1.60;99.90
59893;DHT22;45758;51.052;3.740;2022-12-18T10:33:17;-1.50;99.90
59893;DHT22;45758;51.052;3.740;2022-12-18T10:35:45;-1.50;99.90
59893;DHT22;45758;51.052;3.740;2022-12-18T10:41:04;-1.30;99.90
59893;DHT22;45758;51.052;3.740;2022-12-18T10:43:38;-1.40;99.90
59893;DHT22;45758;51.052;3.740;2022-12-18T10:48:38;-1.30;99.90
59893;DHT22;45758;51.052;3.740;2022-12-18T10:51:06;-1.20;99.90
59893;DHT22;45758;51.052;3.740;2022-12-18T10:53:37;-1.30;99.90
59893;DHT22;45758;51.052;3.740;2022-12-18T10:56:04;-1.20;99.90
59893;DHT22;45758;51.052;3.740;2022-12-18T10:58:33;-1.20;99.90
59893;DHT22;45758;51.052;3.740;2022-12-18T11:01:16;-0.90;99.90
59893;DHT22;45758;51.052;3.740;2022-12-18T11:06:20;-0.90;99.90
59893;DHT22;45758;51.052;3.740;2022-12-18T11:09:19;-0.90;99.90
59893;DHT22;45758;51.052;3.740;2022-12-18T11:11:54;-0.80;99.90
59893;DHT22;45758;51.052;3.740;2022-12-18T11:14:26;-0.80;99.90
59893;DHT22;45758;51.052;3.740;2022-12-18T11:16:53;-0.80;99.90
59893;DHT22;45758;51.052;3.740;2022-12-18T11:19:37;-0.60;99.90
59893;DHT22;45758;51.052;3.740;2022-12-18T11:24:57;-0.60;99.90
59893;DHT22;45758;51.052;3.740;2022-12-18T11:27:24;-0.70;99.90
59893;DHT22;45758;51.052;3.740;2022-12-18T11:29:51;-0.70;99.90
59893;DHT22;45758;51.052;3.740;2022-12-18T11:41:19;-0.50;99.90
59893;DHT22;45758;51.052;3.740;2022-12-18T11:43:56;-0.50;99.90
59893;DHT22;45758;51.052;3.740;2022-12-18T11:47:01;-0.40;99.90
59893;DHT22;45758;51.052;3.740;2022-12-18T11:49:33;-0.30;99.90
59893;DHT22;45758;51.052;3.740;2022-12-18T11:54:36;-0.10;99.90
59893;DHT22;45758;51.052;3.740;2022-12-18T11:57:13;0.10;99.90
59893;DHT22;45758;51.052;3.740;2022-12-18T11:59:50;0.10;99.90
59893;DHT22;45758;51.052;3.740;2022-12-18T12:22:19;0.50;99.90
59893;DHT22;45758;51.052;3.740;2022-12-18T12:38:41;1.00;99.90
59893;DHT22;45758;51.052;3.740;2022-12-18T12:41:17;1.00;99.90
59893;DHT22;45758;51.052;3.740;2022-12-18T12:44:05;1.10;99.90
59893;DHT22;45758;51.052;3.740;2022-12-18T12:46:36;1.20;99.90
59893;DHT22;45758;51.052;3.740;2022-12-18T12:49:04;1.20;99.90
59893;DHT22;45758;51.052;3.740;2022-12-18T12:51:41;1.30;99.90
59893;DHT22;45758;51.052;3.740;2022-12-18T12:54:20;1.40;99.90
59893;DHT22;45758;51.052;3.740;2022-12-18T12:57:15;1.30;99.90
59893;DHT22;45758;51.052;3.740;2022-12-18T13:03:07;1.30;99.90
59893;DHT22;45758;51.052;3.740;2022-12-18T13:05:51;1.30;99.90
59893;DHT22;45758;51.052;3.740;2022-12-18T13:08:27;1.40;99.90
59893;DHT22;45758;51.052;3.740;2022-12-18T13:10:59;1.50;99.90
59893;DHT22;45758;51.052;3.740;2022-12-18T13:13:54;1.60;99.90
59893;DHT22;45758;51.052;3.740;2022-12-18T13:16:23;1.50;99.90
59893;DHT22;45758;51.052;3.740;2022-12-18T13:18:56;1.30;99.90
59893;DHT22;45758;51.052;3.740;2022-12-18T13:21:29;1.30;99.90
59893;DHT22;45758;51.052;3.740;2022-12-18T13:23:56;1.30;99.90
59893;DHT22;45758;51.052;3.740;2022-12-18T13:26:34;1.40;99.90
59893;DHT22;45758;51.052;3.740;2022-12-18T13:29:01;1.40;99.90
59893;DHT22;45758;51.052;3.740;2022-12-18T13:34:16;1.40;99.90
59893;DHT22;45758;51.052;3.740;2022-12-18T13:36:43;1.40;99.90
59893;DHT22;45758;51.052;3.740;2022-12-18T13:41:52;1.30;99.90
59893;DHT22;45758;51.052;3.740;2022-12-18T13:44:39;1.30;99.90
59893;DHT22;45758;51.052;3.740;2022-12-18T13:47:39;1.30;99.90
59893;DHT22;45758;51.052;3.740;2022-12-18T13:50:25;1.30;99.90
59893;DHT22;45758;51.052;3.740;2022-12-18T13:52:52;1.30;99.90
59893;DHT22;45758;51.052;3.740;2022-12-18T13:55:22;1.30;99.90
59893;DHT22;45758;51.052;3.740;2022-12-18T13:57:50;1.30;99.90
59893;DHT22;45758;51.052;3.740;2022-12-18T14:00:32;1.20;99.90
59893;DHT22;45758;51.052;3.740;2022-12-18T14:03:01;1.30;99.90
59893;DHT22;45758;51.052;3.740;2022-12-18T14:05:35;1.30;99.90
59893;DHT22;45758;51.052;3.740;2022-12-18T14:08:10;1.30;99.90
59893;DHT22;45758;51.052;3.740;2022-12-18T14:10:47;1.30;99.90
59893;DHT22;45758;51.052;3.740;2022-12-18T14:13:31;1.30;99.90
59893;DHT22;45758;51.052;3.740;2022-12-18T14:16:06;1.10;99.90
59893;DHT22;45758;51.052;3.740;2022-12-18T14:18:50;1.20;99.90
59893;DHT22;45758;51.052;3.740;2022-12-18T14:21:22;1.10;99.90
59893;DHT22;45758;51.052;3.740;2022-12-18T14:23:49;1.20;99.90
59893;DHT22;45758;51.052;3.740;2022-12-18T14:26:30;1.20;99.90
59893;DHT22;45758;51.052;3.740;2022-12-18T14:29:20;1.20;99.90
59893;DHT22;45758;51.052;3.740;2022-12-18T14:32:06;1.20;99.90
59893;DHT22;45758;51.052;3.740;2022-12-18T14:34:35;1.20;99.90
59893;DHT22;45758;51.052;3.740;2022-12-18T14:37:01;1.30;99.90
59893;DHT22;45758;51.052;3.740;2022-12-18T14:39:27;1.20;99.90
59893;DHT22;45758;51.052;3.740;2022-12-18T14:41:53;1.30;99.90
59893;DHT22;45758;51.052;3.740;2022-12-18T14:44:19;1.30;99.90
59893;DHT22;45758;51.052;3.740;2022-12-18T14:46:49;1.30;99.90
59893;DHT22;45758;51.052;3.740;2022-12-18T14:49:34;1.20;99.90
59893;DHT22;45758;51.052;3.740;2022-12-18T14:52:05;1.10;99.90
59893;DHT22;45758;51.052;3.740;2022-12-18T14:54:32;1.10;99.90
59893;DHT22;45758;51.052;3.740;2022-12-18T15:00:16;1.20;99.90
59893;DHT22;45758;51.052;3.740;2022-12-18T15:02:43;1.30;99.90
59893;DHT22;45758;51.052;3.740;2022-12-18T15:07:52;1.30;99.90
59893;DHT22;45758;51.052;3.740;2022-12-18T15:10:27;1.30;99.90
59893;DHT22;45758;51.052;3.740;2022-12-18T15:23:34;1.30;99.90
59893;DHT22;45758;51.052;3.740;2022-12-18T15:26:06;1.40;99.90
59893;DHT22;45758;51.052;3.740;2022-12-18T15:28:36;1.40;99.90
59893;DHT22;45758;51.052;3.740;2022-12-18T15:36:20;1.30;99.90
59893;DHT22;45758;51.052;3.740;2022-12-18T15:38:49;1.30;99.90
59893;DHT22;45758;51.052;3.740;2022-12-18T15:41:18;1.30;99.90
59893;DHT22;45758;51.052;3.740;2022-12-18T15:43:46;1.30;99.90
59893;DHT22;45758;51.052;3.740;2022-12-18T15:46:15;1.20;99.90
59893;DHT22;45758;51.052;3.740;2022-12-18T15:48:53;1.20;99.90
59893;DHT22;45758;51.052;3.740;2022-12-18T15:51:38;1.30;99.90
59893;DHT22;45758;51.052;3.740;2022-12-18T15:54:08;1.30;99.90
59893;DHT22;45758;51.052;3.740;2022-12-18T15:56:35;1.40;99.90
59893;DHT22;45758;51.052;3.740;2022-12-18T15:59:20;1.30;99.90
59893;DHT22;45758;51.052;3.740;2022-12-18T16:01:48;1.50;99.90
59893;DHT22;45758;51.052;3.740;2022-12-18T16:04:17;1.50;99.90
59893;DHT22;45758;51.052;3.740;2022-12-18T16:06:46;1.40;99.90
59893;DHT22;45758;51.052;3.740;2022-12-18T16:09:13;1.40;99.90
59893;DHT22;45758;51.052;3.740;2022-12-18T16:11:42;1.30;99.90
59893;DHT22;45758;51.052;3.740;2022-12-18T16:14:25;1.40;99.90
59893;DHT22;45758;51.052;3.740;2022-12-18T16:16:56;1.40;99.90
59893;DHT22;45758;51.052;3.740;2022-12-18T16:19:22;1.50;99.90
59893;DHT22;45758;51.052;3.740;2022-12-18T16:21:49;1.40;99.90
59893;DHT22;45758;51.052;3.740;2022-12-18T16:26:43;1.40;99.90
59893;DHT22;45758;51.052;3.740;2022-12-18T16:29:09;1.40;99.90
59893;DHT22;45758;51.052;3.740;2022-12-18T16:31:36;1.50;99.90
59893;DHT22;45758;51.052;3.740;2022-12-18T16:36:52;1.60;99.90
59893;DHT22;45758;51.052;3.740;2022-12-18T16:39:19;1.60;99.90
59893;DHT22;45758;51.052;3.740;2022-12-18T16:41:45;1.60;99.90
59893;DHT22;45758;51.052;3.740;2022-12-18T16:44:13;1.60;99.90
59893;DHT22;45758;51.052;3.740;2022-12-18T16:46:40;1.60;99.90
59893;DHT22;45758;51.052;3.740;2022-12-18T16:49:08;1.60;99.90
59893;DHT22;45758;51.052;3.740;2022-12-18T16:51:35;1.70;99.90
59893;DHT22;45758;51.052;3.740;2022-12-18T16:54:01;1.70;99.90
59893;DHT22;45758;51.052;3.740;2022-12-18T16:56:27;1.80;99.90
59893;DHT22;45758;51.052;3.740;2022-12-18T16:58:55;1.80;99.90
59893;DHT22;45758;51.052;3.740;2022-12-18T17:01:23;1.80;99.90
59893;DHT22;45758;51.052;3.740;2022-12-18T17:03:53;1.80;99.90
59893;DHT22;45758;51.052;3.740;2022-12-18T17:06:21;1.70;99.90
59893;DHT22;45758;51.052;3.740;2022-12-18T17:08:47;1.80;99.90
59893;DHT22;45758;51.052;3.740;2022-12-18T17:11:14;1.90;99.90
59893;DHT22;45758;51.052;3.740;2022-12-18T17:13:40;1.90;99.90
59893;DHT22;45758;51.052;3.740;2022-12-18T17:16:07;1.70;99.90
59893;DHT22;45758;51.052;3.740;2022-12-18T17:18:33;1.80;99.90
59893;DHT22;45758;51.052;3.740;2022-12-18T17:21:01;1.70;99.90
59893;DHT22;45758;51.052;3.740;2022-12-18T17:23:28;1.70;99.90
59893;DHT22;45758;51.052;3.740;2022-12-18T17:25:58;1.70;99.90
59893;DHT22;45758;51.052;3.740;2022-12-18T17:28:26;1.60;99.90
59893;DHT22;45758;51.052;3.740;2022-12-18T17:30:53;1.70;99.90
59893;DHT22;45758;51.052;3.740;2022-12-18T17:33:19;1.70;99.90
59893;DHT22;45758;51.052;3.740;2022-12-18T17:35:48;1.70;99.90
59893;DHT22;45758;51.052;3.740;2022-12-18T17:38:14;1.70;99.90
59893;DHT22;45758;51.052;3.740;2022-12-18T17:40:43;1.80;99.90
59893;DHT22;45758;51.052;3.740;2022-12-18T17:43:10;1.60;99.90
59893;DHT22;45758;51.052;3.740;2022-12-18T17:45:37;1.60;99.90
59893;DHT22;45758;51.052;3.740;2022-12-18T17:48:08;1.70;99.90
59893;DHT22;45758;51.052;3.740;2022-12-18T17:50:35;1.70;99.90
59893;DHT22;45758;51.052;3.740;2022-12-18T17:53:01;1.70;99.90
59893;DHT22;45758;51.052;3.740;2022-12-18T17:55:35;1.60;99.90
59893;DHT22;45758;51.052;3.740;2022-12-18T17:58:02;1.60;99.90
59893;DHT22;45758;51.052;3.740;2022-12-18T18:00:31;1.60;99.90
59893;DHT22;45758;51.052;3.740;2022-12-18T18:03:00;1.50;99.90
59893;DHT22;45758;51.052;3.740;2022-12-18T18:05:38;1.60;99.90
59893;DHT22;45758;51.052;3.740;2022-12-18T18:08:07;1.60;99.90
59893;DHT22;45758;51.052;3.740;2022-12-18T18:10:37;1.80;99.90
59893;DHT22;45758;51.052;3.740;2022-12-18T18:13:13;1.70;99.90
